Data for 12/28/2008

Time Sea-Level Adjusted Pressure Absolute Pressure Temperature Relative Humidity Dew Point   
(mb) (inHg) (mb) (inHg) (C) (F) (%) (C) (F)
00:05 1012 29.88 841 24.83 0.9 33.7 55 -7.2 19.1
00:10 1011 29.85 841 24.83 0.8 33.5 55 -7.3 18.8
00:15 1012 29.88 841 24.83 1.1 34 55 -7 19.4
00:20 1011 29.85 841 24.83 1 33.8 55 -7.1 19.3
00:25 1011 29.85 841 24.83 0.8 33.5 55 -7.2 19
00:30 1011 29.85 841 24.83 0.7 33.2 57 -6.9 19.7
00:35 1011 29.85 841 24.83 0.7 33.2 55 -7.3 18.9
00:40 1011 29.85 841 24.83 0.5 32.9 56 -7.2 19
00:45 1011 29.85 841 24.83 0.4 32.7 56 -7.3 18.8
00:50 1011 29.85 840 24.81 0.5 32.8 56 -7.3 18.9
00:55 1011 29.85 841 24.83 0.5 32.9 56 -7.3 18.9
01:00 1012 29.88 841 24.83 0.8 33.5 54 -7.4 18.6
01:05 1012 29.88 841 24.83 1.1 34.1 53 -7.3 18.9
01:10 1012 29.88 841 24.83 1.3 34.4 55 -6.7 20
01:15 1012 29.88 841 24.83 1.1 34 56 -6.6 20.1
01:20 1012 29.88 841 24.83 1 33.9 56 -6.8 19.8
01:25 1012 29.88 841 24.83 1.1 34.1 53 -7.4 18.7
01:30 1012 29.88 841 24.83 1.5 34.7 52 -7.3 18.8
01:35 1012 29.88 841 24.83 1.9 35.3 52 -7 19.4
01:40 1012 29.88 841 24.83 1.8 35.2 51 -7.4 18.7
01:45 1012 29.88 841 24.83 1.7 35 51 -7.4 18.7
01:50 1012 29.88 841 24.83 1.7 35.1 51 -7.3 18.9
01:55 1012 29.88 841 24.83 1.6 34.9 52 -7.2 19.1
02:00 1012 29.88 841 24.83 1.6 34.8 52 -7.3 18.9
02:05 1012 29.88 841 24.83 1.5 34.7 51 -7.4 18.6
02:10 1012 29.88 841 24.83 1.4 34.6 52 -7.4 18.8
02:15 1012 29.88 841 24.83 1.4 34.5 52 -7.4 18.8
02:20 1012 29.88 841 24.83 1.4 34.4 51 -7.6 18.3
02:25 1012 29.88 841 24.83 1.5 34.8 51 -7.6 18.3
02:30 1012 29.88 841 24.83 1.4 34.6 51 -7.7 18.2
02:35 1012 29.88 842 24.86 1.5 34.8 50 -7.9 17.7
02:40 1012 29.88 842 24.86 1.8 35.2 50 -7.6 18.3
02:45 1012 29.88 842 24.86 1.7 35.1 51 -7.4 18.6
02:50 1013 29.91 842 24.86 1.7 35 51 -7.4 18.6
02:55 1013 29.91 842 24.86 1.6 34.8 51 -7.5 18.5
03:00 1013 29.91 842 24.86 1.5 34.7 52 -7.4 18.7
03:05 1013 29.91 842 24.86 1.5 34.7 52 -7.4 18.8
03:10 1013 29.91 842 24.86 1.5 34.7 53 -7.1 19.1
03:15 1013 29.91 842 24.86 1.5 34.7 53 -7.1 19.2
03:20 1013 29.91 842 24.86 1.5 34.7 53 -7.1 19.2
03:25 1013 29.91 842 24.86 1.3 34.3 54 -7.1 19.3
03:30 1013 29.91 842 24.86 1.1 34.1 54 -7.1 19.1
03:35 1013 29.91 842 24.86 1.3 34.3 54 -7.1 19.2
03:40 1013 29.91 842 24.86 1.5 34.6 54 -6.9 19.7
03:45 1013 29.91 842 24.86 1.2 34.2 56 -6.5 20.3
03:50 1013 29.91 842 24.86 1.2 34.1 54 -7.2 19.1
03:55 1012 29.88 842 24.86 1.8 35.2 51 -7.4 18.7
04:00 1012 29.88 842 24.86 2.2 35.9 49 -7.4 18.7
04:05 1012 29.88 841 24.83 2.2 36 50 -7.1 19.2
04:10 1012 29.88 842 24.86 2.1 35.8 50 -7.4 18.7
04:15 1012 29.88 841 24.83 2.1 35.7 50 -7.2 19.1
04:20 1012 29.88 841 24.83 1.9 35.4 51 -7.1 19.2
04:25 1012 29.88 841 24.83 1.8 35.2 51 -7.2 19
04:30 1012 29.88 841 24.83 1.8 35.2 51 -7.2 19
04:35 1012 29.88 841 24.83 1.8 35.2 51 -7.3 18.8
04:40 1012 29.88 841 24.83 2.2 36 49 -7.3 18.8
04:45 1012 29.88 841 24.83 2.6 36.7 49 -7 19.4
04:50 1012 29.88 841 24.83 2.4 36.3 50 -7 19.3
04:55 1012 29.88 841 24.83 2.4 36.3 50 -7.1 19.3
05:00 1012 29.88 841 24.83 2.7 36.8 49 -6.9 19.6
05:05 1012 29.88 841 24.83 2.7 36.8 50 -6.6 20.1
05:10 1012 29.88 841 24.83 2.7 36.8 49 -7 19.4
05:15 1012 29.88 841 24.83 2.7 36.9 50 -6.5 20.2
05:20 1012 29.88 841 24.83 2.2 36 52 -6.5 20.2
05:25 1012 29.88 841 24.83 1.9 35.4 53 -6.6 20.1
05:30 1011 29.85 840 24.81 1.9 35.4 53 -6.7 19.9
05:35 1011 29.85 840 24.81 2.2 36 51 -7 19.5
05:40 1011 29.85 840 24.81 2.6 36.7 50 -6.8 19.7
05:45 1011 29.85 840 24.81 2.8 37 50 -6.7 19.9
05:50 1011 29.85 840 24.81 2.6 36.6 52 -6.2 20.8
05:55 1011 29.85 840 24.81 1.9 35.4 53 -6.6 20.1
06:00 1011 29.85 840 24.81 1.8 35.2 53 -6.9 19.7
06:05 1011 29.85 840 24.81 1.1 34 59 -5.9 21.3
06:10 1011 29.85 841 24.83 0.2 32.4 59 -6.9 19.7
06:15 1011 29.85 841 24.83 0.2 32.4 60 -6.7 20
06:20 1011 29.85 841 24.83 0.4 32.6 59 -6.7 20
06:25 1011 29.85 841 24.83 -0.2 31.7 60 -7 19.4
06:30 1011 29.85 841 24.83 -0.5 31.2 61 -7.1 19.3
06:35 1011 29.85 841 24.83 -0.7 30.8 61 -7.2 19
06:40 1011 29.85 840 24.81 -0.8 30.6 62 -7.2 19
06:45 1011 29.85 840 24.81 -0.9 30.3 61 -7.5 18.5
06:50 1011 29.85 840 24.81 -1 30.3 61 -7.6 18.3
06:55 1011 29.85 840 24.81 -1.1 30 61 -7.7 18.1
07:00 1011 29.85 840 24.81 -1.2 29.9 62 -7.6 18.3
07:05 1011 29.85 840 24.81 -1.2 29.8 62 -7.5 18.5
07:10 1010 29.83 839 24.78 -1.3 29.6 62 -7.6 18.2
07:15 1010 29.83 839 24.78 -1.5 29.4 62 -7.7 18.1
07:20 1010 29.83 839 24.78 -1.5 29.3 62 -7.9 17.8
07:25 1010 29.83 839 24.78 -1.5 29.3 61 -8.1 17.5
07:30 1010 29.83 839 24.78 -1.2 29.9 59 -8.1 17.4
07:35 1010 29.83 840 24.81 -1.1 29.9 59 -8.2 17.3
07:40 1011 29.85 840 24.81 -1.1 30 60 -8 17.6
07:45 1011 29.85 840 24.81 -1.1 30 58 -8.4 16.9
07:50 1010 29.83 840 24.81 -0.9 30.3 58 -8.3 17.1
07:55 1011 29.85 840 24.81 -0.8 30.6 57 -8.3 17.1
08:00 1011 29.85 840 24.81 -0.7 30.8 58 -8 17.6
08:05 1011 29.85 840 24.81 -0.7 30.8 58 -8 17.7
08:10 1011 29.85 840 24.81 -0.8 30.7 59 -7.8 18
08:15 1011 29.85 840 24.81 -0.9 30.5 59 -7.9 17.8
08:20 1011 29.85 840 24.81 -0.8 30.5 59 -7.8 18
08:25 1011 29.85 840 24.81 -0.8 30.6 59 -7.9 17.8
08:30 1010 29.83 840 24.81 -0.7 30.7 59 -7.8 17.9
08:35 1010 29.83 840 24.81 -0.8 30.6 59 -7.8 17.9
08:40 1010 29.83 839 24.78 -0.7 30.7 58 -8 17.7
08:45 1010 29.83 840 24.81 -0.7 30.8 58 -8 17.5
08:50 1011 29.85 840 24.81 -0.7 30.8 56 -8.4 17
08:55 1011 29.85 840 24.81 -0.6 30.9 58 -7.9 17.8
09:00 1011 29.85 840 24.81 -0.6 30.8 57 -8.2 17.3
09:05 1011 29.85 840 24.81 -0.6 31 57 -8 17.6
09:10 1011 29.85 840 24.81 -0.4 31.3 57 -8 17.7
09:15 1011 29.85 840 24.81 -0.1 31.8 55 -8.1 17.4
09:20 1011 29.85 840 24.81 0.1 32.1 56 -7.7 18.1
09:25 1011 29.85 840 24.81 0 32 56 -7.8 18
09:30 1011 29.85 840 24.81 -0 32 56 -7.8 18
09:35 1011 29.85 840 24.81 0 32 56 -7.8 18
09:40 1011 29.85 840 24.81 0 32 57 -7.5 18.5
09:45 1011 29.85 840 24.81 0.2 32.3 56 -7.6 18.3
09:50 1011 29.85 840 24.81 0.4 32.7 57 -7.3 18.9
09:55 1011 29.85 840 24.81 0.4 32.7 57 -7.3 18.9
10:00 1011 29.85 840 24.81 0.5 32.8 57 -7.1 19.1
10:05 1011 29.85 840 24.81 0.6 33 55 -7.4 18.7
10:10 1011 29.85 840 24.81 0.8 33.4 56 -7.1 19.2
10:15 1011 29.85 840 24.81 0.8 33.4 56 -7.1 19.3
10:20 1011 29.85 840 24.81 1.1 34 52 -7.6 18.2
10:25 1011 29.85 840 24.81 1.8 35.3 54 -6.5 20.4
10:30 1011 29.85 840 24.81 1.3 34.3 56 -6.6 20
10:35 1011 29.85 840 24.81 1.3 34.3 55 -6.8 19.8
10:40 1011 29.85 840 24.81 1.4 34.4 56 -6.4 20.4
10:45 1011 29.85 840 24.81 1.4 34.6 58 -6 21.1
10:50 1011 29.85 840 24.81 1.5 34.7 55 -6.5 20.2
10:55 1011 29.85 840 24.81 1.6 34.9 55 -6.3 20.6
11:00 1011 29.85 840 24.81 1.7 35 56 -6.2 20.9
11:05 1011 29.85 840 24.81 1.6 34.9 55 -6.5 20.2
11:10 1011 29.85 840 24.81 2.1 35.9 51 -6.9 19.5
11:15 1011 29.85 840 24.81 2.7 36.9 54 -5.7 21.7
11:20 1011 29.85 840 24.81 2.9 37.2 52 -5.9 21.3
11:25 1011 29.85 840 24.81 3.8 38.9 51 -5.5 22.2
11:30 1010 29.83 839 24.78 5.1 41.2 47 -5.1 22.7
11:35 1010 29.83 840 24.81 5.6 42.1 46 -5 23.1
11:40 1010 29.83 840 24.81 5.6 42 47 -4.8 23.4
11:45 1010 29.83 840 24.81 5.4 41.8 49 -4.4 24
11:50 1010 29.83 840 24.81 5.3 41.6 52 -3.8 25.1
11:55 1011 29.85 840 24.81 5.1 41.2 50 -4.6 23.7
12:00 1010 29.83 840 24.81 5.2 41.3 49 -4.8 23.4
12:05 1010 29.83 840 24.81 5 41 51 -4.4 24.1
12:10 1010 29.83 840 24.81 4.7 40.5 49 -5 23
12:15 1010 29.83 840 24.81 4.8 40.6 51 -4.6 23.8
12:20 1010 29.83 839 24.78 4.9 40.7 51 -4.3 24.2
12:25 1010 29.83 840 24.81 5 41 52 -4.1 24.6
12:30 1010 29.83 840 24.81 5.7 42.2 47 -4.7 23.5
12:35 1010 29.83 840 24.81 6.1 43 47 -4.4 24.1
12:40 1010 29.83 840 24.81 6.3 43.4 47 -4.2 24.5
12:45 1010 29.83 840 24.81 6.4 43.5 48 -3.9 25
12:50 1010 29.83 839 24.78 6.4 43.4 46 -4.3 24.2
12:55 1010 29.83 839 24.78 6.5 43.7 47 -4 24.7
13:00 1010 29.83 839 24.78 6.5 43.7 47 -4.1 24.7
13:05 1010 29.83 839 24.78 6.4 43.6 46 -4.4 24.1
13:10 1010 29.83 839 24.78 6.7 44.1 45 -4.2 24.4
13:15 1010 29.83 839 24.78 6.8 44.3 45 -4.2 24.4
13:20 1010 29.83 839 24.78 6.9 44.5 44 -4.4 24.1
13:25 1010 29.83 839 24.78 6.8 44.3 46 -4.1 24.6
13:30 1010 29.83 839 24.78 6.9 44.4 45 -4.1 24.6
13:35 1010 29.83 839 24.78 7 44.5 43 -4.7 23.5
13:40 1010 29.83 839 24.78 7.1 44.8 42 -4.9 23.1
13:45 1009 29.8 839 24.78 7.3 45.1 43 -4.6 23.8
13:50 1009 29.8 839 24.78 7.1 44.8 42 -4.9 23.3
13:55 1009 29.8 839 24.78 6.9 44.5 42 -5.1 22.9
14:00 1009 29.8 839 24.78 6.9 44.5 43 -4.8 23.3
14:05 1009 29.8 839 24.78 6.8 44.3 43 -5 23.1
14:10 1009 29.8 839 24.78 6.9 44.4 43 -4.8 23.4
14:15 1010 29.83 839 24.78 7 44.5 42 -5.2 22.6
14:20 1010 29.83 839 24.78 7 44.7 42 -5.1 22.8
14:25 1010 29.83 839 24.78 7.1 44.7 42 -4.9 23.1
14:30 1010 29.83 839 24.78 7.1 44.7 43 -4.5 23.9
14:35 1010 29.83 839 24.78 7 44.7 43 -4.6 23.7
14:40 1010 29.83 839 24.78 7 44.6 43 -4.8 23.3
14:45 1010 29.83 839 24.78 6.7 44.1 43 -4.9 23.2
14:50 1010 29.83 839 24.78 6.5 43.8 44 -4.8 23.3
14:55 1010 29.83 839 24.78 6.6 43.9 42 -5.3 22.5
15:00 1010 29.83 839 24.78 6.7 44 42 -5.2 22.6
15:05 1010 29.83 839 24.78 6.8 44.3 44 -4.6 23.8
15:10 1010 29.83 839 24.78 6.7 44.1 43 -4.9 23.1
15:15 1010 29.83 839 24.78 6.7 44.1 43 -5 23.1
15:20 1010 29.83 839 24.78 6.7 44.1 45 -4.4 24.2
15:25 1010 29.83 839 24.78 6.5 43.6 46 -4.3 24.3
15:30 1010 29.83 839 24.78 6.4 43.6 44 -4.9 23.3
15:35 1010 29.83 840 24.81 6.6 43.9 44 -4.8 23.4
15:40 1010 29.83 840 24.81 6.6 43.9 43 -4.9 23.1
15:45 1010 29.83 840 24.81 6.5 43.8 44 -4.9 23.2
15:50 1011 29.85 840 24.81 6.5 43.7 42 -5.4 22.2
15:55 1011 29.85 840 24.81 6.5 43.7 43 -5 22.9
16:00 1011 29.85 840 24.81 6.3 43.3 44 -5.2 22.6
16:05 1011 29.85 840 24.81 6.1 42.9 45 -5 22.9
16:10 1011 29.85 840 24.81 5.9 42.6 47 -4.7 23.5
16:15 1011 29.85 840 24.81 5.7 42.2 48 -4.5 23.9
16:20 1011 29.85 840 24.81 5.6 42.2 46 -5 22.9
16:25 1011 29.85 840 24.81 5.8 42.4 45 -5.2 22.6
16:30 1011 29.85 840 24.81 5.7 42.3 46 -4.9 23.2
16:35 1011 29.85 840 24.81 5.7 42.2 47 -4.9 23.2
16:40 1011 29.85 840 24.81 5.6 42.1 45 -5.3 22.4
16:45 1011 29.85 840 24.81 5.8 42.4 45 -5.3 22.4
16:50 1011 29.85 840 24.81 5.8 42.4 46 -4.9 23.1
16:55 1011 29.85 840 24.81 5.6 42.1 46 -5.2 22.7
17:00 1011 29.85 840 24.81 5.6 42.1 45 -5.3 22.4
17:05 1011 29.85 841 24.83 5.6 42.1 45 -5.4 22.3
17:10 1011 29.85 841 24.83 5.6 42.1 45 -5.4 22.3
17:15 1012 29.88 841 24.83 5.5 41.9 46 -5.2 22.7
17:20 1012 29.88 841 24.83 5.4 41.7 46 -5.2 22.7
17:25 1012 29.88 841 24.83 5.3 41.6 45 -5.5 22.1
17:30 1012 29.88 841 24.83 5.4 41.8 45 -5.6 21.9
17:35 1012 29.88 841 24.83 5.5 41.9 46 -5.3 22.5
17:40 1012 29.88 841 24.83 5.4 41.8 46 -5.3 22.5
17:45 1012 29.88 841 24.83 5.3 41.5 47 -5.2 22.7
17:50 1012 29.88 841 24.83 5.2 41.4 47 -5.2 22.7
17:55 1012 29.88 841 24.83 5.2 41.3 47 -5.2 22.7
18:00 1012 29.88 841 24.83 5.2 41.3 47 -5.2 22.6
18:05 1012 29.88 841 24.83 5.3 41.5 46 -5.5 22.1
18:10 1012 29.88 841 24.83 5.5 41.9 45 -5.5 22.2
18:15 1012 29.88 841 24.83 5.4 41.8 46 -5.3 22.5
18:20 1012 29.88 841 24.83 5.3 41.5 46 -5.3 22.5
18:25 1012 29.88 841 24.83 5.2 41.4 46 -5.4 22.2
18:30 1012 29.88 841 24.83 5.2 41.4 46 -5.4 22.4
18:35 1012 29.88 841 24.83 5.2 41.4 46 -5.5 22.1
18:40 1012 29.88 841 24.83 5.2 41.4 46 -5.5 22.1
18:45 1012 29.88 841 24.83 5.2 41.4 46 -5.4 22.3
18:50 1012 29.88 841 24.83 5.3 41.5 45 -5.7 21.8
18:55 1012 29.88 842 24.86 5.3 41.5 46 -5.6 22
19:00 1012 29.88 842 24.86 5.2 41.3 46 -5.6 22
19:05 1013 29.91 842 24.86 5.2 41.3 46 -5.4 22.3
19:10 1013 29.91 842 24.86 5.1 41.2 47 -5.3 22.5
19:15 1013 29.91 842 24.86 5 41.1 47 -5.5 22.2
19:20 1013 29.91 842 24.86 5 41.1 48 -5.2 22.7
19:25 1013 29.91 842 24.86 5 40.9 48 -5.3 22.5
19:30 1013 29.91 842 24.86 4.9 40.9 48 -5.3 22.5
19:35 1013 29.91 842 24.86 5 41.1 45 -5.9 21.4
19:40 1013 29.91 843 24.89 5.3 41.5 46 -5.5 22.1
19:45 1014 29.94 843 24.89 5.1 41.1 47 -5.4 22.2
19:50 1014 29.94 843 24.89 4.9 40.9 48 -5.3 22.5
19:55 1014 29.94 843 24.89 4.8 40.7 48 -5.4 22.3
20:00 1014 29.94 843 24.89 5 41 45 -6 21.2
20:05 1014 29.94 843 24.89 5.2 41.4 46 -5.4 22.2
20:10 1014 29.94 843 24.89 5.1 41.1 46 -5.7 21.8
20:15 1014 29.94 843 24.89 5 41 47 -5.5 22.1
20:20 1014 29.94 843 24.89 5 41 45 -5.8 21.5
20:25 1014 29.94 843 24.89 5 41.1 47 -5.3 22.5
20:30 1014 29.94 844 24.92 5 40.9 46 -5.7 21.8
20:35 1014 29.94 844 24.92 5.1 41.1 47 -5.4 22.2
20:40 1014 29.94 844 24.92 5 41.1 47 -5.4 22.3
20:45 1015 29.97 844 24.92 5.1 41.2 46 -5.5 22
20:50 1015 29.97 844 24.92 5.2 41.3 46 -5.4 22.2
20:55 1015 29.97 844 24.92 5.2 41.3 46 -5.5 22.1
21:00 1015 29.97 844 24.92 5.3 41.5 47 -5.1 22.8
21:05 1015 29.97 844 24.92 5.1 41.1 49 -4.7 23.5
21:10 1015 29.97 844 24.92 4.4 40 56 -3.7 25.4
21:15 1015 29.97 844 24.92 3.4 38.2 58 -4.1 24.6
21:20 1015 29.97 844 24.92 3.1 37.6 58 -4.3 24.2
21:25 1015 29.97 844 24.92 3 37.4 58 -4.5 23.9
21:30 1015 29.97 844 24.92 3 37.3 58 -4.5 23.9
21:35 1015 29.97 845 24.95 2.8 37.1 58 -4.6 23.8
21:40 1015 29.97 845 24.95 2.7 36.8 58 -4.7 23.6
21:45 1015 29.97 845 24.95 2.4 36.4 59 -4.7 23.5
21:50 1016 30 845 24.95 2.3 36.1 60 -4.7 23.6
21:55 1016 30 845 24.95 2.2 36 60 -4.7 23.5
22:00 1016 30 845 24.95 2.2 36 59 -4.9 23.2
22:05 1016 30 845 24.95 2.2 36 60 -4.8 23.4
22:10 1016 30 845 24.95 2.2 36 61 -4.5 23.9
22:15 1016 30 845 24.95 2.3 36.1 62 -4.2 24.5
22:20 1016 30 845 24.95 2.3 36.1 64 -3.8 25.2
22:25 1016 30 845 24.95 2.2 35.9 66 -3.5 25.7
22:30 1016 30 845 24.95 2.1 35.7 67 -3.5 25.7
22:35 1016 30 845 24.95 2 35.7 68 -3.2 26.3
22:40 1016 30 845 24.95 2.1 35.8 69 -3 26.6
22:45 1016 30 845 24.95 2.2 35.9 70 -2.8 26.9
22:50 1016 30 845 24.95 2.1 35.7 70 -2.8 27
22:55 1016 30 845 24.95 2 35.5 71 -2.8 27
23:00 1016 30 845 24.95 1.9 35.4 71 -2.9 26.8
23:05 1016 30 846 24.98 1.9 35.4 70 -2.9 26.7
23:10 1016 30 846 24.98 1.9 35.5 70 -3 26.7
23:15 1017 30.03 846 24.98 2 35.6 70 -2.9 26.7
23:20 1017 30.03 846 24.98 2 35.6 69 -3.1 26.5
23:25 1017 30.03 846 24.98 2 35.6 69 -3.1 26.4
23:30 1017 30.03 846 24.98 2 35.7 68 -3.2 26.2
23:35 1017 30.03 846 24.98 2 35.6 67 -3.4 25.9
23:40 1017 30.03 846 24.98 2.1 35.7 67 -3.4 25.9
23:45 1017 30.03 846 24.98 2.1 35.7 67 -3.4 25.9
23:50 1017 30.03 846 24.98 2.1 35.8 67 -3.5 25.8
23:55 1017 30.03 846 24.98 2.1 35.8 67 -3.3 26
24:00 1017 30.03 846 24.98 2.1 35.7 68 -3.3 26.1